Time;durP1;ratioP1;P1;durP2;ratioP2;P2;SDS_P1;SDS_P2;PMS_P1;PMS_P2;Temp;Humidity;BMP_temperature;BMP_pressure;BME280_temperature;BME280_humidity;BME280_pressure;Samples;Min_cycle;Max_cycle;Signal;HPM_P1;HPM_P2
2022/07/19 00:00:48;;;;;;;8.25;5.68;;;;;;;25.71;44.45;101980.28;4721063;30;20045;-83
2022/07/19 00:03:14;;;;;;;11.40;5.38;;;;;;;25.74;44.73;101984.41;4718821;30;20052;-82
2022/07/19 00:05:40;;;;;;;8.02;5.25;;;;;;;25.74;44.40;101987.91;4720097;30;20390;-82
2022/07/19 00:08:05;;;;;;;6.38;5.00;;;;;;;25.71;44.72;101980.28;4716628;30;20098;-83
2022/07/19 00:10:31;;;;;;;15.60;5.57;;;;;;;25.73;44.75;101988.09;4709566;30;20033;-83
2022/07/19 00:12:57;;;;;;;8.15;5.22;;;;;;;25.78;44.22;101989.16;4719707;30;20059;-82
2022/07/19 00:15:23;;;;;;;10.27;5.43;;;;;;;25.77;44.39;101987.53;4712933;30;20178;-83
2022/07/19 00:17:49;;;;;;;8.68;5.43;;;;;;;25.80;44.40;101987.13;4717032;30;21216;-83
2022/07/19 00:20:18;;;;;;;7.20;4.68;;;;;;;25.74;44.87;101979.91;4721818;30;20429;-84
2022/07/19 00:22:44;;;;;;;8.52;5.30;;;;;;;25.76;44.45;101979.72;4720462;30;20056;-84
2022/07/19 00:25:10;;;;;;;8.50;5.70;;;;;;;25.77;44.36;101979.53;4721635;30;20036;-85
2022/07/19 00:27:35;;;;;;;7.82;5.28;;;;;;;25.79;44.42;101984.66;4714365;30;20043;-83
2022/07/19 00:30:02;;;;;;;7.03;5.20;;;;;;;25.77;44.77;101987.53;4719178;30;20044;-83
2022/07/19 00:32:27;;;;;;;8.88;5.40;;;;;;;25.80;44.28;101983.63;4720621;30;20117;-83
2022/07/19 00:34:53;;;;;;;6.65;4.97;;;;;;;25.80;44.41;101984.47;4712079;30;20060;-83
2022/07/19 00:37:18;;;;;;;9.18;4.90;;;;;;;25.81;44.40;101977.28;4716483;30;20098;-82
2022/07/19 00:39:44;;;;;;;7.13;4.50;;;;;;;25.82;44.22;101978.94;4721892;30;20047;-82
2022/07/19 00:42:09;;;;;;;7.80;5.15;;;;;;;25.78;44.35;101978.50;4723207;30;20063;-83
2022/07/19 00:44:35;;;;;;;7.07;5.15;;;;;;;25.77;44.56;101976.84;4722434;30;20454;-83
2022/07/19 00:47:02;;;;;;;7.13;5.07;;;;;;;25.78;44.36;101983.00;4725373;30;20041;-83
2022/07/19 00:49:27;;;;;;;9.07;5.93;;;;;;;25.79;44.66;101974.00;4719605;30;20068;-84
2022/07/19 00:51:55;;;;;;;8.13;5.00;;;;;;;25.79;44.52;101980.16;4717655;30;20481;-83
2022/07/19 00:54:22;;;;;;;7.32;5.10;;;;;;;25.80;44.43;101986.31;4721460;30;20075;-83
2022/07/19 00:56:50;;;;;;;9.30;5.57;;;;;;;25.79;44.71;101984.66;4721397;30;20131;-84
2022/07/19 00:59:17;;;;;;;8.15;5.15;;;;;;;25.78;44.42;101975.84;4724003;30;20396;-83
2022/07/19 01:01:43;;;;;;;8.45;5.43;;;;;;;25.82;44.41;101979.75;4722237;30;20044;-83
2022/07/19 01:04:10;;;;;;;8.18;5.35;;;;;;;25.79;44.57;101971.31;4719336;30;20037;-84
2022/07/19 01:06:37;;;;;;;7.60;5.35;;;;;;;25.82;44.28;101969.09;4725457;30;20110;-83
2022/07/19 01:09:03;;;;;;;7.45;5.50;;;;;;;25.82;44.55;101978.94;4722794;30;20435;-83
2022/07/19 01:11:28;;;;;;;7.75;5.32;;;;;;;25.81;44.22;101972.78;4723534;30;20472;-83
2022/07/19 01:13:54;;;;;;;8.38;5.10;;;;;;;25.86;44.26;101983.72;4721134;30;20048;-84
2022/07/19 01:16:19;;;;;;;7.55;4.93;;;;;;;25.83;44.25;101973.41;4721807;30;20597;-83
2022/07/19 01:18:45;;;;;;;8.93;5.68;;;;;;;25.81;44.54;101974.63;4716709;30;20047;-80
2022/07/19 01:21:22;;;;;;;7.65;4.97;;;;;;;25.81;44.22;101977.28;4718977;30;20153;-81
2022/07/19 01:23:48;;;;;;;8.60;5.47;;;;;;;25.84;44.11;101969.72;4721327;30;20677;-81
2022/07/19 01:26:13;;;;;;;7.90;5.30;;;;;;;25.86;44.40;101974.91;4709712;30;20068;-82
2022/07/19 01:28:39;;;;;;;7.68;5.28;;;;;;;25.84;44.40;101979.56;4722965;30;20116;-81
2022/07/19 01:31:04;;;;;;;7.53;5.25;;;;;;;25.85;44.34;101982.06;4723900;30;20044;-82
2022/07/19 01:33:30;;;;;;;7.65;5.63;;;;;;;25.87;44.23;101984.53;4721392;30;20481;-81
2022/07/19 01:35:55;;;;;;;9.20;5.82;;;;;;;25.83;44.11;101977.91;4721238;30;20056;-81
2022/07/19 01:38:21;;;;;;;7.07;4.80;;;;;;;25.86;44.23;101983.72;4723257;30;20044;-81
2022/07/19 01:40:46;;;;;;;7.40;5.28;;;;;;;25.83;44.42;101980.59;4722403;30;20049;-81
2022/07/19 01:43:12;;;;;;;6.55;4.90;;;;;;;25.88;44.33;101970.19;4727004;30;20052;-81
2022/07/19 01:45:38;;;;;;;7.13;4.80;;;;;;;25.85;44.40;101974.06;4721333;30;20488;-81
2022/07/19 01:48:04;;;;;;;7.97;5.78;;;;;;;25.85;44.05;101981.22;4718237;30;20386;-81
2022/07/19 01:50:30;;;;;;;9.30;5.75;;;;;;;25.85;44.34;101975.88;4719376;30;20052;-81
2022/07/19 01:52:55;;;;;;;8.02;5.28;;;;;;;25.86;44.33;101969.56;4723425;30;20060;-82
2022/07/19 01:55:21;;;;;;;10.63;5.70;;;;;;;25.86;44.30;101962.38;4721804;30;22540;-81
2022/07/19 01:57:48;;;;;;;7.10;4.85;;;;;;;25.82;44.07;101968.25;4716833;30;20049;-81
2022/07/19 02:00:14;;;;;;;6.80;4.70;;;;;;;25.86;44.41;101964.22;4720407;30;20119;-81
2022/07/19 02:02:41;;;;;;;8.60;5.28;;;;;;;25.82;44.41;101960.25;4723920;30;20044;-81
2022/07/19 02:05:07;;;;;;;7.07;4.80;;;;;;;25.85;44.49;101965.19;4717550;30;21027;-79
2022/07/19 02:07:32;;;;;;;6.20;5.22;;;;;;;25.84;44.06;101963.56;4716952;30;20076;-80
2022/07/19 02:09:58;;;;;;;7.22;5.05;;;;;;;25.87;44.29;101971.19;4725349;30;20132;-80
2022/07/19 02:12:24;;;;;;;7.40;5.50;;;;;;;25.83;44.35;101968.06;4703770;30;20052;-80
2022/07/19 02:14:49;;;;;;;8.45;5.30;;;;;;;25.88;44.44;101972.84;4723391;30;20056;-80
2022/07/19 02:17:15;;;;;;;8.88;5.60;;;;;;;25.86;44.56;101973.03;4719369;30;20064;-79
2022/07/19 02:19:40;;;;;;;9.57;5.70;;;;;;;25.83;44.39;101962.72;4718072;30;20147;-80
2022/07/19 02:22:06;;;;;;;7.20;4.95;;;;;;;25.85;44.34;101971.41;4719924;30;20056;-80
2022/07/19 02:24:31;;;;;;;7.68;5.05;;;;;;;25.85;44.35;101975.88;4724123;30;20099;-80
2022/07/19 02:26:57;;;;;;;8.40;5.55;;;;;;;25.85;44.29;101963.41;4716810;30;20122;-80
2022/07/19 02:29:22;;;;;;;7.90;5.30;;;;;;;25.85;44.17;101966.06;4723445;30;20049;-80
2022/07/19 02:31:48;;;;;;;7.93;5.28;;;;;;;25.84;44.43;101961.72;4723322;30;20052;-80
2022/07/19 02:34:13;;;;;;;9.15;5.88;;;;;;;25.87;44.09;101961.34;4716792;30;20297;-80
2022/07/19 02:36:39;;;;;;;7.68;5.55;;;;;;;25.86;44.13;101964.22;4720180;30;20037;-80
2022/07/19 02:39:04;;;;;;;10.10;5.47;;;;;;;25.86;44.17;101965.03;4718876;30;20049;-80
2022/07/19 02:41:31;;;;;;;6.82;5.28;;;;;;;25.89;44.22;101961.16;4718289;30;20044;-80
2022/07/19 02:43:57;;;;;;;7.18;5.32;;;;;;;25.82;44.63;101960.25;4722940;30;20067;-80
2022/07/19 02:46:22;;;;;;;6.65;5.50;;;;;;;25.85;44.52;101959.88;4720029;30;20390;-80
2022/07/19 02:48:48;;;;;;;7.88;5.47;;;;;;;25.85;44.31;101952.72;4720263;30;20579;-80
2022/07/19 02:51:13;;;;;;;6.30;4.95;;;;;;;25.88;44.39;101962.19;4703320;30;20062;-80
2022/07/19 02:53:39;;;;;;;7.47;4.88;;;;;;;25.85;44.20;101957.19;4723673;30;20049;-81
2022/07/19 02:56:05;;;;;;;7.55;5.00;;;;;;;25.81;44.23;101951.44;4722689;30;20052;-81
2022/07/19 02:58:30;;;;;;;7.60;4.97;;;;;;;25.85;44.58;101950.06;4721530;30;20052;-80
2022/07/19 03:00:56;;;;;;;7.53;5.15;;;;;;;25.87;44.25;101949.84;4724431;30;20075;-81
2022/07/19 03:06:05;;;;;;;7.47;5.13;;;;;;;25.83;44.15;101945.91;4719673;30;20040;-80
2022/07/19 03:08:31;;;;;;;9.40;5.15;;;;;;;25.86;44.48;101946.38;4705517;30;20056;-80
2022/07/19 03:10:56;;;;;;;6.63;4.90;;;;;;;25.84;44.52;101942.22;4719887;30;20989;-80
2022/07/19 03:13:22;;;;;;;7.57;5.05;;;;;;;25.83;44.21;101938.72;4719057;30;20047;-80
2022/07/19 03:15:48;;;;;;;7.35;5.20;;;;;;;25.89;44.43;101945.16;4719002;30;20052;-80
2022/07/19 03:18:13;;;;;;;7.53;5.25;;;;;;;25.84;44.24;101935.03;4718951;30;20053;-79
2022/07/19 03:20:39;;;;;;;6.28;4.82;;;;;;;25.89;44.28;101937.13;4722585;30;20051;-80
2022/07/19 03:23:04;;;;;;;7.80;5.30;;;;;;;25.85;44.25;101941.19;4720579;30;20096;-79
2022/07/19 03:25:30;;;;;;;7.85;4.97;;;;;;;25.83;44.01;101937.88;4720767;30;20049;-79
2022/07/19 03:27:55;;;;;;;7.53;5.72;;;;;;;25.86;44.44;101938.34;4716637;30;20085;-79
2022/07/19 03:30:21;;;;;;;7.47;5.70;;;;;;;25.81;44.11;101930.09;4714702;30;20053;-79
2022/07/19 03:32:47;;;;;;;7.35;4.85;;;;;;;25.86;44.29;101934.88;4715799;30;21816;-80
2022/07/19 03:35:13;;;;;;;6.63;5.10;;;;;;;25.81;44.36;101930.09;4720729;30;20079;-80
2022/07/19 03:37:38;;;;;;;9.77;4.85;;;;;;;25.82;44.15;101934.41;4719592;30;20103;-80
2022/07/19 03:40:05;;;;;;;6.65;5.03;;;;;;;25.83;44.40;101937.88;4717318;30;20060;-79
2022/07/19 03:42:30;;;;;;;7.85;5.30;;;;;;;25.85;44.27;101941.19;4722453;30;20060;-79
2022/07/19 03:44:56;;;;;;;7.78;5.25;;;;;;;25.84;44.28;101944.88;4719193;30;20091;-80
2022/07/19 03:47:21;;;;;;;6.68;4.72;;;;;;;25.81;44.33;101940.75;4716811;30;20048;-80
2022/07/19 03:49:47;;;;;;;8.05;5.57;;;;;;;25.85;43.92;101944.72;4719144;30;20052;-80
2022/07/19 03:52:13;;;;;;;7.22;5.18;;;;;;;25.84;43.97;101939.53;4722811;30;20049;-80
2022/07/19 03:54:39;;;;;;;8.25;4.93;;;;;;;25.87;44.24;101949.84;4714545;30;20600;-80
2022/07/19 03:57:04;;;;;;;7.95;5.80;;;;;;;25.84;44.16;101944.88;4713543;30;20060;-80
2022/07/19 03:59:30;;;;;;;7.70;4.88;;;;;;;25.82;43.96;101938.91;4719836;30;20053;-80
2022/07/19 04:01:56;;;;;;;6.68;5.07;;;;;;;25.84;44.13;101940.38;4719610;30;20040;-80
2022/07/19 04:04:21;;;;;;;8.02;4.68;;;;;;;25.81;44.29;101943.44;4718990;30;20444;-80
2022/07/19 04:06:47;;;;;;;8.27;5.60;;;;;;;25.84;44.33;101943.03;4719601;30;20075;-80
2022/07/19 04:09:12;;;;;;;8.13;5.13;;;;;;;25.83;44.00;101940.56;4719264;30;20140;-80
2022/07/19 04:11:38;;;;;;;7.85;5.88;;;;;;;25.86;44.30;101942.88;4722359;30;20029;-80
2022/07/19 04:14:04;;;;;;;6.90;5.18;;;;;;;25.84;44.13;101942.22;4719960;30;20040;-80
2022/07/19 04:16:30;;;;;;;7.40;5.05;;;;;;;25.84;44.14;101952.88;4717668;30;20052;-80
2022/07/19 04:18:55;;;;;;;7.57;5.22;;;;;;;25.79;44.09;101945.47;4715438;30;20477;-80
2022/07/19 04:21:21;;;;;;;6.45;5.13;;;;;;;25.80;44.40;101952.44;4719301;30;20139;-80
2022/07/19 04:23:46;;;;;;;6.82;4.97;;;;;;;25.81;44.28;101956.75;4718089;30;20053;-80
2022/07/19 04:26:12;;;;;;;6.47;5.05;;;;;;;25.81;43.99;101947.94;4722181;30;20049;-80
2022/07/19 04:28:38;;;;;;;6.88;4.95;;;;;;;25.81;44.06;101935.41;4718953;30;20048;-83
2022/07/19 04:31:03;;;;;;;7.50;5.03;;;;;;;25.80;44.36;101936.44;4720458;30;20051;-83
2022/07/19 04:33:29;;;;;;;7.60;5.47;;;;;;;25.82;44.18;101947.75;4712250;30;20950;-83
2022/07/19 04:35:54;;;;;;;7.45;5.15;;;;;;;25.84;44.07;101942.22;4719003;30;20118;-83
2022/07/19 04:38:21;;;;;;;8.07;5.28;;;;;;;25.82;44.36;101936.25;4703997;30;20060;-83
2022/07/19 04:40:47;;;;;;;6.53;4.85;;;;;;;25.82;44.21;101941.59;4721740;30;20076;-83
2022/07/19 04:43:13;;;;;;;9.05;5.70;;;;;;;25.84;44.10;101942.22;4720803;30;20083;-83
2022/07/19 04:45:41;;;;;;;6.32;4.85;;;;;;;25.81;44.04;101951.44;4720676;30;20038;-83
2022/07/19 04:48:08;;;;;;;7.57;5.25;;;;;;;25.83;44.27;101952.06;4720123;30;20722;-83
2022/07/19 04:50:33;;;;;;;7.72;5.38;;;;;;;25.80;44.07;101948.97;4721143;30;20044;-84
2022/07/19 04:52:59;;;;;;;6.97;4.72;;;;;;;25.87;43.89;101949.84;4718980;30;20840;-83
2022/07/19 04:55:24;;;;;;;7.45;5.15;;;;;;;25.79;44.33;101947.31;4721462;30;20099;-83
2022/07/19 04:57:50;;;;;;;7.05;4.95;;;;;;;25.76;44.30;101942.38;4720589;30;20049;-83
2022/07/19 05:00:16;;;;;;;6.90;5.15;;;;;;;25.78;44.07;101941.16;4731817;30;20045;-83
2022/07/19 05:02:41;;;;;;;6.78;5.07;;;;;;;25.83;44.19;101944.06;4718252;30;20047;-83
2022/07/19 05:05:07;;;;;;;6.40;4.65;;;;;;;25.78;44.07;101941.16;4721748;30;20527;-83
2022/07/19 05:07:33;;;;;;;7.57;5.07;;;;;;;25.82;44.05;101936.25;4719963;30;20036;-83
2022/07/19 05:09:59;;;;;;;8.38;4.95;;;;;;;25.78;44.28;101945.66;4721433;30;20049;-83
2022/07/19 05:12:24;;;;;;;7.38;4.80;;;;;;;25.80;44.20;101944.44;4719521;30;20053;-82
2022/07/19 05:14:50;;;;;;;7.05;5.10;;;;;;;25.78;43.96;101940.31;4716281;30;20064;-83
2022/07/19 05:17:15;;;;;;;7.28;5.20;;;;;;;25.77;43.99;101939.50;4716304;30;21626;-83
2022/07/19 05:19:41;;;;;;;9.27;5.38;;;;;;;25.77;44.26;101941.34;4719997;30;20108;-82
2022/07/19 05:22:07;;;;;;;7.05;5.18;;;;;;;25.76;44.04;101947.69;4720316;30;20069;-82
2022/07/19 05:24:32;;;;;;;7.88;4.88;;;;;;;25.76;44.02;101939.69;4721121;30;20147;-84
2022/07/19 05:26:58;;;;;;;8.65;5.43;;;;;;;25.75;44.24;101940.72;4717473;30;20112;-82
2022/07/19 05:29:23;;;;;;;6.75;5.15;;;;;;;25.79;44.03;101947.31;4718869;30;20158;-83
2022/07/19 05:31:49;;;;;;;7.57;5.35;;;;;;;25.76;43.95;101950.38;4721090;30;20053;-82
2022/07/19 05:34:15;;;;;;;10.40;5.15;;;;;;;25.81;44.04;101951.44;4722208;30;20052;-82
2022/07/19 05:36:40;;;;;;;6.78;4.75;;;;;;;25.76;44.22;101955.69;4724480;30;20055;-83
2022/07/19 05:39:06;;;;;;;6.68;5.13;;;;;;;25.74;44.23;101950.56;4721124;30;20036;-82
2022/07/19 05:41:31;;;;;;;6.68;5.13;;;;;;;25.77;44.01;101952.00;4722245;30;20083;-83
2022/07/19 05:43:57;;;;;;;7.75;4.93;;;;;;;25.76;44.12;101958.38;4719528;30;20064;-82
2022/07/19 05:46:22;;;;;;;6.10;5.05;;;;;;;25.73;44.12;101962.25;4719641;30;20068;-82
2022/07/19 05:48:48;;;;;;;7.72;5.00;;;;;;;25.78;43.84;101967.81;4721286;30;20041;-82
2022/07/19 05:51:14;;;;;;;6.93;4.95;;;;;;;25.72;44.07;101962.44;4724594;30;20040;-82
2022/07/19 05:53:40;;;;;;;8.50;5.07;;;;;;;25.79;43.92;101957.97;4725124;30;20523;-83
2022/07/19 05:56:06;;;;;;;9.15;5.50;;;;;;;25.74;43.96;101958.56;4722886;30;20656;-82
2022/07/19 05:58:31;;;;;;;8.13;5.20;;;;;;;25.79;43.87;101950.81;4721562;30;20045;-82
2022/07/19 06:03:42;;;;;;;7.25;5.13;;;;;;;25.79;43.74;101948.13;4721872;30;20452;-82
2022/07/19 06:06:07;;;;;;;5.95;4.63;;;;;;;25.81;43.70;101953.28;4720029;30;20052;-82
2022/07/19 06:08:33;;;;;;;6.63;4.95;;;;;;;25.81;43.77;101951.44;4727297;30;20635;-82
2022/07/19 06:10:59;;;;;;;6.97;5.28;;;;;;;25.82;43.70;101953.06;4726034;30;20056;-83
2022/07/19 06:13:25;;;;;;;6.60;4.85;;;;;;;25.81;43.85;101953.28;4721923;30;20129;-82
2022/07/19 06:15:51;;;;;;;7.20;5.55;;;;;;;25.82;44.08;101949.59;4719969;30;20045;-82
2022/07/19 06:18:17;;;;;;;8.57;5.68;;;;;;;25.84;43.60;101936.88;4720618;30;20070;-82
2022/07/19 06:20:43;;;;;;;6.47;4.97;;;;;;;25.83;43.74;101940.56;4723033;30;20717;-83
2022/07/19 06:23:09;;;;;;;6.10;4.72;;;;;;;25.73;44.09;101943.56;4723472;30;20041;-84
2022/07/19 06:25:35;;;;;;;9.05;5.75;;;;;;;25.81;44.09;101938.09;4720572;30;20049;-85
2022/07/19 06:28:00;;;;;;;6.75;4.90;;;;;;;25.79;44.33;101932.13;4721151;30;20068;-86
2022/07/19 06:30:26;;;;;;;8.05;5.32;;;;;;;25.83;43.98;101936.06;4714971;30;20071;-87
2022/07/19 06:32:51;;;;;;;8.20;5.00;;;;;;;25.80;44.43;101933.78;4724568;30;20045;-85
2022/07/19 06:35:17;;;;;;;8.05;5.40;;;;;;;25.82;44.09;101930.91;4720515;30;20052;-85
2022/07/19 06:37:43;;;;;;;6.20;4.55;;;;;;;25.86;44.16;101940.19;4723750;30;20044;-86
2022/07/19 06:40:08;;;;;;;6.95;5.07;;;;;;;25.83;44.21;101943.22;4723432;30;20043;-86
2022/07/19 06:42:34;;;;;;;7.95;5.57;;;;;;;25.81;44.37;101940.75;4723927;30;20144;-85
2022/07/19 06:45:01;;;;;;;8.95;5.55;;;;;;;25.83;44.35;101951.22;4720279;30;20060;-85
2022/07/19 06:47:32;;;;;;;9.73;4.80;;;;;;;25.88;44.21;101939.00;4722092;30;20195;-85
2022/07/19 06:49:58;;;;;;;6.95;5.05;;;;;;;25.86;44.27;101942.88;4720210;30;20064;-84
2022/07/19 06:52:24;;;;;;;7.35;5.03;;;;;;;25.85;44.52;101943.84;4721421;30;20685;-84
2022/07/19 06:54:50;;;;;;;7.63;5.35;;;;;;;25.83;44.03;101938.72;4721203;30;20405;-84
2022/07/19 06:57:16;;;;;;;6.97;5.30;;;;;;;25.88;44.10;101941.66;4719804;30;20067;-85
2022/07/19 06:59:42;;;;;;;8.15;5.30;;;;;;;25.89;44.14;101934.47;4719910;30;20064;-84
2022/07/19 07:02:07;;;;;;;7.40;4.85;;;;;;;25.91;43.99;101943.09;4717787;30;20048;-84
2022/07/19 07:04:33;;;;;;;8.02;5.00;;;;;;;25.96;44.16;101943.34;4716839;30;20130;-85
2022/07/19 07:06:58;;;;;;;7.07;5.30;;;;;;;25.95;44.27;101948.88;4722526;30;20401;-84
2022/07/19 07:09:24;;;;;;;9.25;5.30;;;;;;;25.94;44.10;101939.22;4720147;30;20083;-85
2022/07/19 07:11:49;;;;;;;6.80;5.10;;;;;;;25.93;44.11;101943.72;4720714;30;20040;-86
2022/07/19 07:14:15;;;;;;;8.20;5.68;;;;;;;25.95;44.12;101940.88;4722311;30;20064;-86
2022/07/19 07:16:40;;;;;;;6.88;4.72;;;;;;;25.96;44.19;101924.66;4723888;30;20071;-86
2022/07/19 07:19:06;;;;;;;8.02;5.22;;;;;;;25.99;43.96;101936.78;4715237;30;20048;-86
2022/07/19 07:21:34;;;;;;;6.65;5.05;;;;;;;25.99;44.43;101929.59;4724748;30;20403;-87
2022/07/19 07:24:04;;;;;;;7.18;5.20;;;;;;;26.02;43.93;101933.72;4737305;30;20071;-86
2022/07/19 07:26:31;;;;;;;6.90;4.80;;;;;;;26.04;44.19;101927.19;4717583;30;20040;-86
2022/07/19 07:28:56;;;;;;;7.53;5.28;;;;;;;26.01;44.24;101922.22;4720561;30;20524;-86
2022/07/19 07:31:22;;;;;;;9.82;5.25;;;;;;;26.00;44.40;101920.56;4721952;30;20051;-86
2022/07/19 07:33:47;;;;;;;7.22;5.20;;;;;;;26.05;44.21;101934.19;4720949;30;20024;-87
2022/07/19 07:36:13;;;;;;;6.82;4.78;;;;;;;26.05;44.46;101928.03;4725547;30;20049;-87
2022/07/19 07:38:39;;;;;;;10.10;4.95;;;;;;;26.07;44.29;101913.47;4732259;30;20516;-87
2022/07/19 07:41:05;;;;;;;7.45;5.30;;;;;;;26.13;44.04;101917.19;4722968;30;20063;-86
2022/07/19 07:43:30;;;;;;;7.25;5.20;;;;;;;26.11;44.43;101912.03;4718848;30;20051;-86
2022/07/19 07:45:56;;;;;;;10.35;4.88;;;;;;;26.12;44.05;101913.69;4722381;30;20040;-86
2022/07/19 07:48:21;;;;;;;8.73;5.47;;;;;;;26.14;44.35;101911.66;4723577;30;20055;-86
2022/07/19 07:50:47;;;;;;;8.77;5.85;;;;;;;26.18;44.50;101907.56;4723537;30;20052;-86
2022/07/19 07:53:12;;;;;;;12.50;5.65;;;;;;;26.13;44.46;101901.16;4721973;30;20603;-86
2022/07/19 07:55:41;;;;;;;11.23;5.30;;;;;;;26.19;44.29;101906.53;4725168;30;20048;-86
2022/07/19 07:58:08;;;;;;;7.22;5.68;;;;;;;26.17;44.29;101897.06;4716377;30;20091;-84
2022/07/19 08:00:34;;;;;;;8.82;5.57;;;;;;;26.27;44.14;101904.75;4719619;30;20072;-85
2022/07/19 08:03:00;;;;;;;9.30;5.57;;;;;;;26.32;44.07;101897.78;4717985;30;20053;-85
2022/07/19 08:05:25;;;;;;;9.48;5.57;;;;;;;26.41;43.96;101896.66;4720900;30;20048;-84
2022/07/19 08:07:51;;;;;;;9.82;4.90;;;;;;;26.47;43.98;101890.50;4720155;30;20041;-85
2022/07/19 08:10:17;;;;;;;10.23;5.70;;;;;;;26.50;43.71;101891.94;4721724;30;20056;-85
2022/07/19 08:12:42;;;;;;;8.57;5.32;;;;;;;26.55;43.65;101891.34;4721929;30;20056;-84
2022/07/19 08:15:08;;;;;;;9.60;4.90;;;;;;;26.55;43.71;101878.81;4721436;30;20083;-84
2022/07/19 08:17:34;;;;;;;8.45;5.15;;;;;;;26.66;43.48;101888.94;4733137;30;20134;-84
2022/07/19 08:20:00;;;;;;;6.85;4.63;;;;;;;26.67;43.72;101895.09;4720517;30;20048;-84
2022/07/19 08:22:25;;;;;;;9.77;5.45;;;;;;;26.64;43.72;101890.97;4722316;30;20056;-84
2022/07/19 08:24:51;;;;;;;9.80;5.20;;;;;;;26.68;43.58;101892.22;4719499;30;20051;-84
2022/07/19 08:27:16;;;;;;;8.55;5.10;;;;;;;26.68;43.42;101894.06;4713658;30;20036;-84
2022/07/19 08:29:42;;;;;;;8.52;5.05;;;;;;;26.69;43.61;101883.19;4718732;30;20056;-85
2022/07/19 08:32:07;;;;;;;8.60;5.03;;;;;;;26.69;43.85;101885.84;4722179;30;20044;-85
2022/07/19 08:34:33;;;;;;;10.02;5.63;;;;;;;26.67;43.61;101895.94;4722654;30;20052;-85
2022/07/19 08:37:00;;;;;;;9.73;5.45;;;;;;;26.68;44.07;101894.06;4723758;30;20052;-84
2022/07/19 08:39:25;;;;;;;6.70;4.80;;;;;;;26.69;43.70;101877.84;4718368;30;20497;-84
2022/07/19 08:41:51;;;;;;;8.68;5.00;;;;;;;26.66;43.86;101883.59;4723108;30;20110;-84
2022/07/19 08:44:17;;;;;;;8.77;5.18;;;;;;;26.67;43.68;101887.09;4712665;30;20044;-84
2022/07/19 08:46:43;;;;;;;10.55;4.70;;;;;;;26.70;43.95;101890.19;4721503;30;20583;-84
2022/07/19 08:49:10;;;;;;;10.25;5.70;;;;;;;26.68;44.02;101878.88;4723178;30;20087;-86
2022/07/19 08:51:36;;;;;;;8.40;5.20;;;;;;;26.71;43.65;101889.16;4702468;30;20421;-84
2022/07/19 08:54:02;;;;;;;9.85;5.47;;;;;;;26.68;43.98;101886.06;4724016;30;20045;-85
2022/07/19 08:59:13;;;;;;;7.85;5.18;;;;;;;26.65;44.35;101875.78;4719556;30;20048;-85
2022/07/19 09:01:39;;;;;;;8.73;4.75;;;;;;;26.48;44.56;101889.47;4718078;30;20058;-84
2022/07/19 09:04:14;;;;;;;7.63;4.60;;;;;;;26.36;45.04;101890.22;4724587;30;20136;-85
2022/07/19 09:06:41;;;;;;;12.55;5.55;;;;;;;26.41;44.87;101888.63;4718748;30;20501;-87
2022/07/19 09:09:07;;;;;;;10.48;5.00;;;;;;;26.39;44.66;101853.28;4676930;30;20446;-89
2022/07/19 09:11:35;;;;;;;7.70;5.53;;;;;;;26.83;44.26;101877.91;4723644;30;20049;-91
2022/07/19 09:14:08;;;;;;;8.45;4.93;;;;;;;26.92;44.35;101879.34;4721161;30;20079;-84
2022/07/19 09:16:57;;;;;;;6.68;4.70;;;;;;;27.08;44.29;101889.69;4720210;30;20509;-89
2022/07/19 09:19:25;;;;;;;8.23;5.03;;;;;;;27.20;44.56;101879.25;4734699;30;20068;-91
2022/07/19 09:21:55;;;;;;;5.80;4.47;;;;;;;27.25;44.67;101882.94;4723810;30;20057;-92
2022/07/19 09:24:22;;;;;;;10.55;5.25;;;;;;;27.32;44.50;101872.25;4697487;30;20040;-94
2022/07/19 09:27:08;;;;;;;10.20;4.72;;;;;;;27.46;44.59;101875.75;4712706;30;20139;-85
2022/07/19 09:29:36;;;;;;;8.27;4.90;;;;;;;27.43;44.33;101874.31;4703578;30;20049;-86
2022/07/19 09:32:18;;;;;;;8.40;4.97;;;;;;;27.49;44.33;101876.19;4736504;30;20045;-85
2022/07/19 09:34:55;;;;;;;6.95;5.15;;;;;;;27.43;44.38;101876.16;4728823;30;20048;-83
2022/07/19 09:37:29;;;;;;;8.45;4.38;;;;;;;27.47;44.75;101872.03;4726135;30;20730;-83
2022/07/19 09:39:58;;;;;;;7.05;4.40;;;;;;;27.52;44.47;101864.25;4717061;30;20127;-84
2022/07/19 09:42:33;;;;;;;6.53;4.80;;;;;;;27.54;44.43;101876.38;4713312;30;20389;-84
2022/07/19 09:45:02;;;;;;;7.82;4.75;;;;;;;27.54;44.39;101854.97;4732543;30;20140;-88
2022/07/19 09:47:37;;;;;;;6.70;4.80;;;;;;;27.69;43.78;101857.47;4723469;30;20041;-87
2022/07/19 09:50:08;;;;;;;8.35;4.80;;;;;;;27.55;44.04;101856.63;4711271;30;21931;-89
2022/07/19 09:52:35;;;;;;;9.88;4.97;;;;;;;27.52;43.86;101861.56;4725223;30;20131;-87
2022/07/19 09:55:06;;;;;;;7.75;4.30;;;;;;;27.60;43.84;101858.66;4719870;30;20043;-89
2022/07/19 09:57:38;;;;;;;6.63;4.22;;;;;;;27.52;44.04;101851.69;4711422;30;20496;-88
2022/07/19 10:00:06;;;;;;;8.18;4.57;;;;;;;27.67;43.61;101849.66;4724609;30;20055;-87
2022/07/19 10:02:35;;;;;;;6.05;4.47;;;;;;;27.54;43.81;101841.59;4722620;30;20037;-85
2022/07/19 10:05:02;;;;;;;6.47;4.30;;;;;;;27.61;43.86;101844.25;4722188;30;20052;-86
2022/07/19 10:07:28;;;;;;;9.27;4.85;;;;;;;27.66;43.50;101848.00;4721936;30;20056;-85
2022/07/19 10:09:54;;;;;;;7.28;4.68;;;;;;;27.62;44.22;101849.41;4719780;30;20048;-85
2022/07/19 10:12:21;;;;;;;6.75;4.47;;;;;;;27.61;43.81;101845.09;4715665;30;20109;-84
2022/07/19 10:14:47;;;;;;;6.32;4.93;;;;;;;27.71;43.77;101839.34;4708847;30;20068;-84
2022/07/19 10:17:33;;;;;;;7.82;4.90;;;;;;;27.71;44.01;101847.38;4720068;30;20226;-89
2022/07/19 10:20:03;;;;;;;8.75;4.97;;;;;;;28.02;43.58;101840.53;4724013;30;20105;-92
2022/07/19 10:22:29;;;;;;;7.85;4.47;;;;;;;27.91;43.34;101834.78;4740353;30;20519;-84
2022/07/19 10:24:56;;;;;;;6.57;4.47;;;;;;;27.69;43.67;101828.84;4729680;30;20107;-86
2022/07/19 10:27:24;;;;;;;7.40;4.78;;;;;;;27.78;43.82;101842.84;4727039;30;20044;-86
2022/07/19 10:30:10;;;;;;;5.70;4.22;;;;;;;27.95;43.49;101835.19;4701143;30;20843;-87
2022/07/19 10:32:46;;;;;;;7.55;4.25;;;;;;;27.92;43.39;101823.03;4735589;30;20504;-90
2022/07/19 10:35:18;;;;;;;8.90;4.65;;;;;;;28.09;43.26;101835.97;4724795;30;20437;-89
2022/07/19 10:37:45;;;;;;;5.95;4.32;;;;;;;28.03;43.63;101828.78;4724553;30;20047;-89
2022/07/19 10:40:11;;;;;;;6.85;4.13;;;;;;;28.11;43.88;101829.38;4725544;30;20493;-92
2022/07/19 10:43:04;;;;;;;6.60;4.47;;;;;;;28.13;43.74;101821.13;4709733;30;20052;-90
2022/07/19 10:45:29;;;;;;;6.82;4.35;;;;;;;27.98;43.63;101792.75;4715027;30;20481;-91
2022/07/19 10:47:59;;;;;;;5.20;4.43;;;;;;;28.15;43.61;101824.41;4713462;30;20183;-90
2022/07/19 10:50:41;;;;;;;;;;;;;;;28.13;43.84;101821.13;4726447;30;20123;-91
2022/07/19 10:53:06;;;;;;;6.25;4.07;;;;;;;28.10;43.51;101814.34;4726807;30;19926;-90
2022/07/19 10:55:32;;;;;;;6.38;4.10;;;;;;;28.11;43.69;101815.16;4724308;30;20063;-90
2022/07/19 10:58:06;;;;;;;8.40;4.60;;;;;;;28.06;43.81;101812.31;4724712;30;20424;-89
2022/07/19 11:00:47;;;;;;;6.05;3.88;;;;;;;28.00;43.77;101793.34;4737424;30;20048;-89
2022/07/19 11:03:22;;;;;;;5.05;4.13;;;;;;;28.01;43.99;101802.22;4693964;30;20075;-88
2022/07/19 11:05:50;;;;;;;6.25;4.65;;;;;;;27.96;43.87;101802.84;4737773;30;20094;-91
2022/07/19 11:08:16;;;;;;;6.22;4.25;;;;;;;27.88;44.24;101789.69;4724276;30;21335;-88
2022/07/19 11:10:43;;;;;;;8.15;4.45;;;;;;;27.92;43.88;101801.63;4722904;30;20045;-88
2022/07/19 11:13:08;;;;;;;7.15;3.92;;;;;;;27.85;44.04;101787.44;4725233;30;20144;-88
2022/07/19 11:15:34;;;;;;;5.50;3.97;;;;;;;27.81;44.15;101796.09;4724907;30;20040;-90
2022/07/19 11:18:02;;;;;;;5.85;4.13;;;;;;;27.68;44.58;101794.28;4723026;30;20148;-87
2022/07/19 11:20:32;;;;;;;5.35;3.80;;;;;;;27.61;44.34;101780.03;4709954;30;20049;-88
2022/07/19 11:23:03;;;;;;;7.50;4.22;;;;;;;27.63;44.33;101775.34;4722985;30;20155;-89
2022/07/19 11:25:31;;;;;;;4.93;3.92;;;;;;;27.67;44.42;101781.94;4723478;30;20147;-90
2022/07/19 11:27:58;;;;;;;5.20;3.88;;;;;;;27.67;44.41;101774.72;4709392;30;20040;-88
2022/07/19 11:30:26;;;;;;;5.13;3.97;;;;;;;27.64;44.79;101777.81;4721793;30;20094;-90